Главная страница
METAR-TAF:

METAR-TAF

Аэропорты :

Брно-Туржаны

Брно, Чехия

широта: 49-09N, долгота: 016-42E, высота над уровнем моря: 241 м

Текущие метеонаблюдения

Эта сводка был подготовлена 17 минут назад, в 02:30 UTC
Ветер 8 Узел от западно-северо-западный
Температура 6°C
Влажность 81%
Давление 1031 hPa
Видимость 10 км и более
Нет облачности ниже 1500 м, и нет кучево-дождевой облачности

METAR: LKTB 250230Z 29008KT CAVOK 06/03 Q1031 NOSIG

Время: 04:47 (02:47 UTC)

Прогноз

Эта сводка был подготовлена 3 часа и 47 минут назад, в 23:00 UTC
Прогноз действительный с 25-го 00 UTC до 26-го 06 UTC
Ветер 10 Узел от западно-северо-западный
Видимость 10 км и более
Нет облачности ниже 1500 м, и нет кучево-дождевой облачности
временами
С 25-го 09 UTC до 25-го 16 UTC
Видимость 10 км и более
Отдельные облака на высоте 3500 фута
изменения
С 25-го 18 UTC до 25-го 20 UTC
Ветер 2 Узел переменных направлений

TAF: LKTB 242300Z 2500/2606 30010KT CAVOK TEMPO 2509/2516 9999 SCT035 BECMG 2518/2520 VRB02KT

Метеонаблюдения и прогнозы для более 4000 аэропортов (сводки METAR и TAF).

Имеющиеся станции представлены на карте желтыми и красными точками.

Чтобы увидеть название станции, наведите на нее мышь.

Затем щелкните, чтобы увидеть метеонаблюдения и метеопрогнозы.

Управление картой: чтобы увеличить масштаб, щелкните зеленые кнопки с черным крестиком; чтобы уменьшить масштаб, щелкните зеленую кнопку с тире; для просмотра соседних карт щелкайте зеленые стрелки.


METAR-TAF: